CheckWX is a tool to help pilots better visualize weather data.  It is not intended as a substitute for an official pre-flight weather briefing.

06:55:44 UTC

ENFL TAF
Florø Airport
Florø, Norway
TAF ENFL 180500Z 1806/1815 17020KT 9999 -SHRA FEW020TCU BKN040 TEMPO 1806/1812 SHRA BKN014TCU

Jun-18@
06:00 UTC

Jun-18 @ 06:00 UTC

Jun-18@
15:00 UTC

Jun-18 @ 15:00 UTC

TAF ENFL 180500Z 1806/1815 17020KT 9999 -SHRA FEW020TCU BKN040
Wind
  • 170° at 20 KTS
Conditions
Light Rain
Cloud Levels
  • Few at 2,000' AGL
  • Broken at 4,000' AGL

Jun-18@
06:00 UTC

Jun-18 @ 06:00 UTC

Jun-18@
12:00 UTC

Jun-18 @ 12:00 UTC

TEMPO 1806/1812 SHRA BKN014TCU

Temporary

Temporary Changes expected for less than half the time period

Conditions
Rain
Cloud Levels
  • Broken at 1,400' AGL